Terminal Aerodrome Forecast
Issued by NWS

Current Version | Previous Version | Graphics & Text | Print | Product List | Glossary On
Versions: 1 2 3 4 5 6 7 8 9 10 11 12 13 14 15 16 17 18 19 20 21 22 23 24 25 26 27
000
FTUS41 KRLX 281100
TAFCKB
TAF
KCKB 281120Z 2812/2912 27005KT 6SM -SN BR BKN050
      TEMPO 2812/2814 BKN015
     FM281400 26005KT P6SM OVC030
     FM281700 25006KT P6SM OVC040
     FM290000 00000KT P6SM BKN080=

USA.gov is the U.S. government's official web portal to all federal, state and local government web resources and services.